»·PEaware :: N790RF KTOA-KEMT

N790RF :: KTOA-KEMT

FLIGHT INFORMATION

Flight Status: Arrived
Operator: Privately registered:
United States
More flights under this callsign
Pilot: Robert F. (15253)
Aircraft: Unknown
(LEG2)
More flights by this aircraft type
Origin: KTOA Zamperini
United States
Destination: KEMT El Monte
United States
More flights between these airports :: More routes between these airports
Route: +LIMBO V64 SLI V8 POXKU V363 POM
File this flight plan on PilotEdge
Remarks: NO SIDS NO STARS
Altitude:
(Current/Filed)
6,000ft
Speed:
(Current/Filed)
143kts
Departed: 11-Jan-18 12:16 PM
Arrived: 11-Jan-18 12:55 PM
Distance/Time
Traveled:
23nm/0:39
Distance/Time
To Go:
Arrived

Flight Plot

Page will automatically refresh every two minutes.


Map Options




Map Legend


Flown Route
Filed Route
Departure Airport
Arrival Airport
Navaid (VOR, NDB)
Fix

Horizontal Profiles

Position Reports

Time Latitude Longitude Heading Altitude Ground
Speed
11-Jan-18 11:58 33.801588 -118.341437 218 108ft 0kts
11-Jan-18 11:59 33.801588 -118.341437 218 108ft 0kts
11-Jan-18 12:00 33.801588 -118.341437 218 108ft 0kts
11-Jan-18 12:01 33.801588 -118.341437 218 108ft 0kts
11-Jan-18 12:02 33.801588 -118.341437 218 108ft 0kts
11-Jan-18 12:03 33.801588 -118.341437 218 108ft 0kts
11-Jan-18 12:04 33.801588 -118.341437 218 108ft 0kts
11-Jan-18 12:05 33.801588 -118.341437 218 108ft 0kts
11-Jan-18 12:06 33.801588 -118.341437 218 108ft 0kts
11-Jan-18 12:07 33.801588 -118.341437 218 108ft 0kts
11-Jan-18 12:08 33.801588 -118.341437 218 108ft 0kts
11-Jan-18 12:09 33.801588 -118.341437 218 108ft 0kts
11-Jan-18 12:10 33.801588 -118.341437 218 108ft 0kts
11-Jan-18 12:11 33.801588 -118.341437 218 108ft 0kts
11-Jan-18 12:12 33.801588 -118.341437 218 108ft 0kts
11-Jan-18 12:13 33.801586 -118.341439 218 108ft 0kts
11-Jan-18 12:14 33.800304 -118.339460 120 108ft 8kts
11-Jan-18 12:15 33.799279 -118.337523 82 108ft 12kts
11-Jan-18 12:16 33.798066 -118.334502 106 108ft 9kts
11-Jan-18 12:17 33.798816 -118.333292 20 108ft 0kts
11-Jan-18 12:18 33.798816 -118.333292 20 108ft 0kts
11-Jan-18 12:19 33.798816 -118.333292 20 108ft 0kts
11-Jan-18 12:20 33.798816 -118.333292 20 108ft 0kts
11-Jan-18 12:21 33.799105 -118.333205 15 108ft 4kts
11-Jan-18 12:22 33.809443 -118.346536 316 300ft 121kts
11-Jan-18 12:23 33.829672 -118.383509 303 1156ft 135kts
11-Jan-18 12:24 33.846287 -118.414626 303 1713ft 132kts
11-Jan-18 12:25 33.856723 -118.458962 218 2469ft 132kts
11-Jan-18 12:26 33.826692 -118.484026 215 3002ft 140kts
11-Jan-18 12:27 33.797619 -118.507510 201 2987ft 160kts
11-Jan-18 12:28 33.769041 -118.469596 113 3676ft 137kts
11-Jan-18 12:29 33.758512 -118.428435 74 4297ft 127kts
11-Jan-18 12:30 33.763175 -118.387008 81 4945ft 123kts
11-Jan-18 12:31 33.765662 -118.350031 82 5057ft 140kts
11-Jan-18 12:32 33.768869 -118.297226 82 5040ft 132kts
11-Jan-18 12:33 33.771068 -118.260703 82 5040ft 130kts
11-Jan-18 12:34 33.773669 -118.217394 82 5040ft 129kts
11-Jan-18 12:35 33.776217 -118.174706 82 5039ft 129kts
11-Jan-18 12:36 33.779004 -118.128181 83 5054ft 146kts
11-Jan-18 12:37 33.781932 -118.078208 83 5042ft 152kts
11-Jan-18 12:38 33.790108 -118.028784 70 5039ft 151kts
11-Jan-18 12:39 33.802603 -117.980341 70 5034ft 151kts
11-Jan-18 12:40 33.815118 -117.931990 70 5036ft 151kts
11-Jan-18 12:41 33.827332 -117.884736 70 5036ft 151kts
11-Jan-18 12:42 33.839823 -117.836332 70 5036ft 151kts
11-Jan-18 12:43 33.854250 -117.789225 35 4992ft 150kts
11-Jan-18 12:44 33.893800 -117.783596 359 5039ft 145kts
11-Jan-18 12:45 33.933366 -117.784077 358 5023ft 136kts
11-Jan-18 12:46 33.970162 -117.784902 359 5027ft 129kts
11-Jan-18 12:47 34.005827 -117.785675 1 5035ft 128kts
11-Jan-18 12:48 34.038662 -117.786435 2 5004ft 101kts
11-Jan-18 12:49 34.068860 -117.786882 3 4351ft 113kts
11-Jan-18 12:50 34.079087 -117.810486 243 3664ft 119kts
11-Jan-18 12:51 34.079357 -117.848193 274 3711ft 114kts
11-Jan-18 12:52 34.082623 -117.893144 270 3210ft 142kts
11-Jan-18 12:53 34.084912 -117.942252 277 2099ft 156kts
11-Jan-18 12:54 34.088917 -117.988003 275 1416ft 112kts
11-Jan-18 12:55 34.099831 -118.020109 299 1237ft 105kts
11-Jan-18 12:56 34.095600 -118.049450 237 1236ft 90kts
11-Jan-18 12:57 34.098378 -118.060437 278 973ft 106kts
11-Jan-18 12:58 34.108117 -118.077640 31 1225ft 89kts
11-Jan-18 12:59 34.109038 -118.046983 119 1178ft 108kts
11-Jan-18 13:00 34.090850 -118.031989 207 411ft 99kts
11-Jan-18 13:01 34.083102 -118.036165 124 300ft 0kts
11-Jan-18 13:02 34.082694 -118.035651 205 300ft 0kts
11-Jan-18 13:03 34.082694 -118.035651 205 300ft 0kts
11-Jan-18 13:04 34.082694 -118.035651 205 300ft 0kts
11-Jan-18 13:05 34.082694 -118.035651 205 300ft 0kts
11-Jan-18 13:06 34.082694 -118.035651 205 300ft 0kts

Navigation Log

Ident Type
1. KTOA Airport
2. LIMBO Fix
3. WILMA Fix
4. SLI Navaid
5. AHEIM Fix
6. OLLIE Fix
7. POXKU Fix
8. PRADO Fix
9. BAYJY Fix
10. POM Navaid
11. KEMT Airport